sensor_id;sensor_type;location;lat;lon;timestamp;temperature;humidity
1225;DHT22;602;48.000;7.840;2023-05-18T00:01:54;11.60;99.90
1225;DHT22;602;48.000;7.840;2023-05-18T00:04:20;11.50;99.90
1225;DHT22;602;48.000;7.840;2023-05-18T00:06:48;11.60;99.90
1225;DHT22;602;48.000;7.840;2023-05-18T00:09:22;11.70;99.90
1225;DHT22;602;48.000;7.840;2023-05-18T00:11:49;11.70;99.90
1225;DHT22;602;48.000;7.840;2023-05-18T00:14:16;11.80;99.90
1225;DHT22;602;48.000;7.840;2023-05-18T00:16:43;11.80;99.90
1225;DHT22;602;48.000;7.840;2023-05-18T00:19:10;11.70;99.90
1225;DHT22;602;48.000;7.840;2023-05-18T00:21:39;11.50;99.90
1225;DHT22;602;48.000;7.840;2023-05-18T00:24:06;11.60;99.90
1225;DHT22;602;48.000;7.840;2023-05-18T00:26:37;11.50;99.90
1225;DHT22;602;48.000;7.840;2023-05-18T00:29:04;11.60;99.90
1225;DHT22;602;48.000;7.840;2023-05-18T00:31:31;11.50;99.90
1225;DHT22;602;48.000;7.840;2023-05-18T00:34:01;11.40;99.90
1225;DHT22;602;48.000;7.840;2023-05-18T00:36:28;11.40;99.90
1225;DHT22;602;48.000;7.840;2023-05-18T00:38:55;11.40;99.90
1225;DHT22;602;48.000;7.840;2023-05-18T00:41:22;11.40;99.90
1225;DHT22;602;48.000;7.840;2023-05-18T00:43:51;11.40;99.90
1225;DHT22;602;48.000;7.840;2023-05-18T00:46:18;11.40;99.90
1225;DHT22;602;48.000;7.840;2023-05-18T00:48:45;11.30;99.90
1225;DHT22;602;48.000;7.840;2023-05-18T00:51:12;11.40;99.90
1225;DHT22;602;48.000;7.840;2023-05-18T00:53:40;11.50;99.90
1225;DHT22;602;48.000;7.840;2023-05-18T00:56:07;11.40;99.90
1225;DHT22;602;48.000;7.840;2023-05-18T00:58:35;11.40;99.90
1225;DHT22;602;48.000;7.840;2023-05-18T01:01:03;11.20;99.90
1225;DHT22;602;48.000;7.840;2023-05-18T01:03:31;11.20;99.90
1225;DHT22;602;48.000;7.840;2023-05-18T01:05:58;11.20;99.90
1225;DHT22;602;48.000;7.840;2023-05-18T01:08:26;11.20;99.90
1225;DHT22;602;48.000;7.840;2023-05-18T01:10:59;11.20;99.90
1225;DHT22;602;48.000;7.840;2023-05-18T01:13:34;11.10;99.90
1225;DHT22;602;48.000;7.840;2023-05-18T01:16:08;11.10;99.90
1225;DHT22;602;48.000;7.840;2023-05-18T01:18:40;11.00;99.90
1225;DHT22;602;48.000;7.840;2023-05-18T01:21:13;11.00;99.90
1225;DHT22;602;48.000;7.840;2023-05-18T01:24:19;10.90;99.90
1225;DHT22;602;48.000;7.840;2023-05-18T01:26:51;10.90;99.90
1225;DHT22;602;48.000;7.840;2023-05-18T01:29:24;10.80;99.90
1225;DHT22;602;48.000;7.840;2023-05-18T01:31:51;10.80;99.90
1225;DHT22;602;48.000;7.840;2023-05-18T01:34:18;10.80;99.90
1225;DHT22;602;48.000;7.840;2023-05-18T01:36:45;10.80;99.90
1225;DHT22;602;48.000;7.840;2023-05-18T01:39:12;10.90;99.90
1225;DHT22;602;48.000;7.840;2023-05-18T01:41:44;10.90;99.90
1225;DHT22;602;48.000;7.840;2023-05-18T01:44:19;10.80;99.90
1225;DHT22;602;48.000;7.840;2023-05-18T01:46:52;10.80;99.90
1225;DHT22;602;48.000;7.840;2023-05-18T01:49:27;10.90;99.90
1225;DHT22;602;48.000;7.840;2023-05-18T01:51:57;10.90;99.90
1225;DHT22;602;48.000;7.840;2023-05-18T01:54:27;11.00;99.90
1225;DHT22;602;48.000;7.840;2023-05-18T01:56:57;10.90;99.90
1225;DHT22;602;48.000;7.840;2023-05-18T01:59:26;11.00;99.90
1225;DHT22;602;48.000;7.840;2023-05-18T02:01:53;11.00;99.90
1225;DHT22;602;48.000;7.840;2023-05-18T02:04:23;11.00;99.90
1225;DHT22;602;48.000;7.840;2023-05-18T02:06:50;10.90;99.90
1225;DHT22;602;48.000;7.840;2023-05-18T02:09:18;10.90;99.90
1225;DHT22;602;48.000;7.840;2023-05-18T02:11:45;10.80;99.90
1225;DHT22;602;48.000;7.840;2023-05-18T02:14:12;10.70;99.90
1225;DHT22;602;48.000;7.840;2023-05-18T02:16:40;10.60;99.90
1225;DHT22;602;48.000;7.840;2023-05-18T02:19:11;10.60;99.90
1225;DHT22;602;48.000;7.840;2023-05-18T02:21:39;10.60;99.90
1225;DHT22;602;48.000;7.840;2023-05-18T02:24:07;10.60;99.90
1225;DHT22;602;48.000;7.840;2023-05-18T02:26:34;10.50;99.90
1225;DHT22;602;48.000;7.840;2023-05-18T02:29:02;10.40;99.90
1225;DHT22;602;48.000;7.840;2023-05-18T02:31:31;10.40;99.90
1225;DHT22;602;48.000;7.840;2023-05-18T02:33:59;10.40;99.90
1225;DHT22;602;48.000;7.840;2023-05-18T02:36:26;10.40;99.90
1225;DHT22;602;48.000;7.840;2023-05-18T02:39:01;10.30;99.90
1225;DHT22;602;48.000;7.840;2023-05-18T02:41:28;10.30;99.90
1225;DHT22;602;48.000;7.840;2023-05-18T02:43:55;10.30;99.90
1225;DHT22;602;48.000;7.840;2023-05-18T02:46:22;10.30;99.90
1225;DHT22;602;48.000;7.840;2023-05-18T02:48:49;10.30;99.90
1225;DHT22;602;48.000;7.840;2023-05-18T02:51:17;10.30;99.90
1225;DHT22;602;48.000;7.840;2023-05-18T02:53:44;10.30;99.90
1225;DHT22;602;48.000;7.840;2023-05-18T02:56:11;10.30;99.90
1225;DHT22;602;48.000;7.840;2023-05-18T02:58:38;10.10;99.90
1225;DHT22;602;48.000;7.840;2023-05-18T03:01:08;10.10;99.90
1225;DHT22;602;48.000;7.840;2023-05-18T03:03:37;10.10;99.90
1225;DHT22;602;48.000;7.840;2023-05-18T03:06:04;10.10;99.90
1225;DHT22;602;48.000;7.840;2023-05-18T03:08:34;10.10;99.90
1225;DHT22;602;48.000;7.840;2023-05-18T03:11:01;10.10;99.90
1225;DHT22;602;48.000;7.840;2023-05-18T03:13:28;10.10;99.90
1225;DHT22;602;48.000;7.840;2023-05-18T03:15:55;10.00;99.90
1225;DHT22;602;48.000;7.840;2023-05-18T03:18:23;9.90;99.90
1225;DHT22;602;48.000;7.840;2023-05-18T03:20:50;9.90;99.90
1225;DHT22;602;48.000;7.840;2023-05-18T03:23:17;9.90;99.90
1225;DHT22;602;48.000;7.840;2023-05-18T03:25:45;9.80;99.90
1225;DHT22;602;48.000;7.840;2023-05-18T03:28:18;9.70;99.90
1225;DHT22;602;48.000;7.840;2023-05-18T03:30:45;9.70;99.90
1225;DHT22;602;48.000;7.840;2023-05-18T03:33:12;9.70;99.90
1225;DHT22;602;48.000;7.840;2023-05-18T03:35:38;9.80;99.90
1225;DHT22;602;48.000;7.840;2023-05-18T03:38:06;9.80;99.90
1225;DHT22;602;48.000;7.840;2023-05-18T03:40:33;9.70;99.90
1225;DHT22;602;48.000;7.840;2023-05-18T03:43:01;9.80;99.90
1225;DHT22;602;48.000;7.840;2023-05-18T03:45:28;9.60;99.90
1225;DHT22;602;48.000;7.840;2023-05-18T03:47:55;9.50;99.90
1225;DHT22;602;48.000;7.840;2023-05-18T03:50:22;9.50;99.90
1225;DHT22;602;48.000;7.840;2023-05-18T03:52:49;9.50;99.90
1225;DHT22;602;48.000;7.840;2023-05-18T03:55:17;9.50;99.90
1225;DHT22;602;48.000;7.840;2023-05-18T03:57:48;9.50;99.90
1225;DHT22;602;48.000;7.840;2023-05-18T04:00:17;9.50;99.90
1225;DHT22;602;48.000;7.840;2023-05-18T04:02:44;9.40;99.90
1225;DHT22;602;48.000;7.840;2023-05-18T04:05:11;9.40;99.90
1225;DHT22;602;48.000;7.840;2023-05-18T04:07:38;9.40;99.90
1225;DHT22;602;48.000;7.840;2023-05-18T04:10:11;9.40;99.90
1225;DHT22;602;48.000;7.840;2023-05-18T04:12:39;9.40;99.90
1225;DHT22;602;48.000;7.840;2023-05-18T04:15:07;9.30;99.90
1225;DHT22;602;48.000;7.840;2023-05-18T04:17:35;9.30;99.90
1225;DHT22;602;48.000;7.840;2023-05-18T04:20:04;9.40;99.90
1225;DHT22;602;48.000;7.840;2023-05-18T04:22:41;9.30;99.90
1225;DHT22;602;48.000;7.840;2023-05-18T04:25:11;9.30;99.90
1225;DHT22;602;48.000;7.840;2023-05-18T04:27:38;9.30;99.90
1225;DHT22;602;48.000;7.840;2023-05-18T04:30:07;9.40;99.90
1225;DHT22;602;48.000;7.840;2023-05-18T04:32:37;9.40;99.90
1225;DHT22;602;48.000;7.840;2023-05-18T04:35:07;9.40;99.90
1225;DHT22;602;48.000;7.840;2023-05-18T04:37:35;9.40;99.90
1225;DHT22;602;48.000;7.840;2023-05-18T04:40:06;9.40;99.90
1225;DHT22;602;48.000;7.840;2023-05-18T04:42:33;9.40;99.90
1225;DHT22;602;48.000;7.840;2023-05-18T04:45:00;9.40;99.90
1225;DHT22;602;48.000;7.840;2023-05-18T04:47:30;9.50;99.90
1225;DHT22;602;48.000;7.840;2023-05-18T04:49:58;9.50;99.90
1225;DHT22;602;48.000;7.840;2023-05-18T04:52:26;9.50;99.90
1225;DHT22;602;48.000;7.840;2023-05-18T04:54:55;9.50;99.90
1225;DHT22;602;48.000;7.840;2023-05-18T04:57:22;9.50;99.90
1225;DHT22;602;48.000;7.840;2023-05-18T04:59:49;9.60;99.90
1225;DHT22;602;48.000;7.840;2023-05-18T05:02:18;9.50;99.90
1225;DHT22;602;48.000;7.840;2023-05-18T05:04:44;9.50;99.90
1225;DHT22;602;48.000;7.840;2023-05-18T05:07:13;9.50;99.90
1225;DHT22;602;48.000;7.840;2023-05-18T05:09:42;9.40;99.90
1225;DHT22;602;48.000;7.840;2023-05-18T05:12:09;9.40;99.90
1225;DHT22;602;48.000;7.840;2023-05-18T05:14:36;9.40;99.90
1225;DHT22;602;48.000;7.840;2023-05-18T05:17:03;9.20;99.90
1225;DHT22;602;48.000;7.840;2023-05-18T05:19:30;9.30;99.90
1225;DHT22;602;48.000;7.840;2023-05-18T05:21:57;9.30;99.90
1225;DHT22;602;48.000;7.840;2023-05-18T05:24:25;9.30;99.90
1225;DHT22;602;48.000;7.840;2023-05-18T05:26:52;9.30;99.90
1225;DHT22;602;48.000;7.840;2023-05-18T05:29:19;9.30;99.90
1225;DHT22;602;48.000;7.840;2023-05-18T05:31:46;9.40;99.90
1225;DHT22;602;48.000;7.840;2023-05-18T05:34:16;9.40;99.90
1225;DHT22;602;48.000;7.840;2023-05-18T05:36:43;9.40;99.90
1225;DHT22;602;48.000;7.840;2023-05-18T05:39:10;9.30;99.90
1225;DHT22;602;48.000;7.840;2023-05-18T05:41:39;9.20;99.90
1225;DHT22;602;48.000;7.840;2023-05-18T05:44:06;9.20;99.90
1225;DHT22;602;48.000;7.840;2023-05-18T05:46:33;9.20;99.90
1225;DHT22;602;48.000;7.840;2023-05-18T05:48:59;9.20;99.90
1225;DHT22;602;48.000;7.840;2023-05-18T05:51:26;9.20;99.90
1225;DHT22;602;48.000;7.840;2023-05-18T05:53:53;9.20;99.90
1225;DHT22;602;48.000;7.840;2023-05-18T05:56:20;9.20;99.90
1225;DHT22;602;48.000;7.840;2023-05-18T05:58:48;9.30;99.90
1225;DHT22;602;48.000;7.840;2023-05-18T06:01:16;9.30;99.90
1225;DHT22;602;48.000;7.840;2023-05-18T06:03:43;9.40;99.90
1225;DHT22;602;48.000;7.840;2023-05-18T06:06:11;9.40;99.90
1225;DHT22;602;48.000;7.840;2023-05-18T06:08:38;9.40;99.90
1225;DHT22;602;48.000;7.840;2023-05-18T06:11:05;9.50;99.90
1225;DHT22;602;48.000;7.840;2023-05-18T06:13:32;9.60;99.90
1225;DHT22;602;48.000;7.840;2023-05-18T06:16:00;9.60;99.90
1225;DHT22;602;48.000;7.840;2023-05-18T06:18:27;9.80;99.90
1225;DHT22;602;48.000;7.840;2023-05-18T06:20:53;10.00;99.90
1225;DHT22;602;48.000;7.840;2023-05-18T06:23:21;10.10;99.90
1225;DHT22;602;48.000;7.840;2023-05-18T06:25:48;10.20;99.90
1225;DHT22;602;48.000;7.840;2023-05-18T06:28:15;10.30;99.90
1225;DHT22;602;48.000;7.840;2023-05-18T06:30:42;10.40;99.90
1225;DHT22;602;48.000;7.840;2023-05-18T06:33:11;10.50;99.90
1225;DHT22;602;48.000;7.840;2023-05-18T06:35:38;10.50;99.90
1225;DHT22;602;48.000;7.840;2023-05-18T06:38:05;10.60;99.90
1225;DHT22;602;48.000;7.840;2023-05-18T06:40:31;10.80;99.90
1225;DHT22;602;48.000;7.840;2023-05-18T06:42:58;10.80;99.90
1225;DHT22;602;48.000;7.840;2023-05-18T06:45:25;10.80;99.90
1225;DHT22;602;48.000;7.840;2023-05-18T06:47:52;10.90;99.90
1225;DHT22;602;48.000;7.840;2023-05-18T06:50:20;11.10;99.90
1225;DHT22;602;48.000;7.840;2023-05-18T06:52:47;11.20;99.90
1225;DHT22;602;48.000;7.840;2023-05-18T06:55:14;11.40;99.90
1225;DHT22;602;48.000;7.840;2023-05-18T06:57:41;11.50;99.90
1225;DHT22;602;48.000;7.840;2023-05-18T07:00:08;11.70;99.90
1225;DHT22;602;48.000;7.840;2023-05-18T07:02:37;12.00;99.90
1225;DHT22;602;48.000;7.840;2023-05-18T07:05:04;12.20;99.90
1225;DHT22;602;48.000;7.840;2023-05-18T07:07:35;12.50;99.90
1225;DHT22;602;48.000;7.840;2023-05-18T07:10:02;12.70;99.90
1225;DHT22;602;48.000;7.840;2023-05-18T07:12:29;13.00;99.90
1225;DHT22;602;48.000;7.840;2023-05-18T07:14:56;13.20;99.90
1225;DHT22;602;48.000;7.840;2023-05-18T07:17:23;13.60;99.90
1225;DHT22;602;48.000;7.840;2023-05-18T07:19:50;13.90;99.90
1225;DHT22;602;48.000;7.840;2023-05-18T07:22:17;14.30;99.90
1225;DHT22;602;48.000;7.840;2023-05-18T07:24:45;14.60;99.90
1225;DHT22;602;48.000;7.840;2023-05-18T07:27:12;15.00;99.90
1225;DHT22;602;48.000;7.840;2023-05-18T07:29:42;15.30;99.90
1225;DHT22;602;48.000;7.840;2023-05-18T07:32:08;15.80;99.90
1225;DHT22;602;48.000;7.840;2023-05-18T07:34:35;16.30;99.90
1225;DHT22;602;48.000;7.840;2023-05-18T07:37:03;16.60;99.90
1225;DHT22;602;48.000;7.840;2023-05-18T07:39:30;17.00;99.90
1225;DHT22;602;48.000;7.840;2023-05-18T07:41:58;17.20;99.90
1225;DHT22;602;48.000;7.840;2023-05-18T07:44:25;17.60;99.90
1225;DHT22;602;48.000;7.840;2023-05-18T07:46:52;17.90;99.90
1225;DHT22;602;48.000;7.840;2023-05-18T07:49:19;18.20;99.90
1225;DHT22;602;48.000;7.840;2023-05-18T07:51:47;18.50;99.90
1225;DHT22;602;48.000;7.840;2023-05-18T07:54:14;18.90;99.90
1225;DHT22;602;48.000;7.840;2023-05-18T07:56:41;19.30;99.90
1225;DHT22;602;48.000;7.840;2023-05-18T07:59:10;19.70;99.90
1225;DHT22;602;48.000;7.840;2023-05-18T08:01:37;20.00;99.90
1225;DHT22;602;48.000;7.840;2023-05-18T08:04:04;20.20;99.90
1225;DHT22;602;48.000;7.840;2023-05-18T08:06:31;20.50;99.90
1225;DHT22;602;48.000;7.840;2023-05-18T08:08:58;20.70;99.90
1225;DHT22;602;48.000;7.840;2023-05-18T08:11:25;20.80;99.90
1225;DHT22;602;48.000;7.840;2023-05-18T08:13:52;20.90;99.90
1225;DHT22;602;48.000;7.840;2023-05-18T08:16:20;21.30;99.90
1225;DHT22;602;48.000;7.840;2023-05-18T08:18:47;21.30;99.90
1225;DHT22;602;48.000;7.840;2023-05-18T08:21:14;21.50;99.90
1225;DHT22;602;48.000;7.840;2023-05-18T08:23:42;21.70;99.90
1225;DHT22;602;48.000;7.840;2023-05-18T08:26:09;21.90;99.90
1225;DHT22;602;48.000;7.840;2023-05-18T08:28:39;22.20;99.90
1225;DHT22;602;48.000;7.840;2023-05-18T08:31:09;22.40;99.90
1225;DHT22;602;48.000;7.840;2023-05-18T08:33:38;22.60;99.90
1225;DHT22;602;48.000;7.840;2023-05-18T08:36:05;22.50;99.90
1225;DHT22;602;48.000;7.840;2023-05-18T08:38:32;22.70;99.90
1225;DHT22;602;48.000;7.840;2023-05-18T08:41:04;22.70;99.90
1225;DHT22;602;48.000;7.840;2023-05-18T08:43:37;22.90;99.90
1225;DHT22;602;48.000;7.840;2023-05-18T08:46:12;23.20;99.90
1225;DHT22;602;48.000;7.840;2023-05-18T08:48:44;23.60;99.90
1225;DHT22;602;48.000;7.840;2023-05-18T08:51:12;23.90;99.90
1225;DHT22;602;48.000;7.840;2023-05-18T08:53:44;24.00;99.90
1225;DHT22;602;48.000;7.840;2023-05-18T08:56:14;24.00;99.90
1225;DHT22;602;48.000;7.840;2023-05-18T08:58:43;24.30;99.90
1225;DHT22;602;48.000;7.840;2023-05-18T09:01:13;24.40;99.90
1225;DHT22;602;48.000;7.840;2023-05-18T09:03:41;24.70;99.90
1225;DHT22;602;48.000;7.840;2023-05-18T09:06:09;24.80;99.40
1225;DHT22;602;48.000;7.840;2023-05-18T09:08:37;24.70;96.50
1225;DHT22;602;48.000;7.840;2023-05-18T09:11:04;24.60;97.50
1225;DHT22;602;48.000;7.840;2023-05-18T09:13:31;24.50;96.90
1225;DHT22;602;48.000;7.840;2023-05-18T09:15:58;24.70;96.60
1225;DHT22;602;48.000;7.840;2023-05-18T09:18:25;24.80;96.20
1225;DHT22;602;48.000;7.840;2023-05-18T09:20:52;25.00;96.60
1225;DHT22;602;48.000;7.840;2023-05-18T09:23:20;25.20;95.70
1225;DHT22;602;48.000;7.840;2023-05-18T09:25:47;25.20;94.00
1225;DHT22;602;48.000;7.840;2023-05-18T09:28:26;25.50;95.30
1225;DHT22;602;48.000;7.840;2023-05-18T09:30:53;25.40;95.20
1225;DHT22;602;48.000;7.840;2023-05-18T09:33:38;25.60;93.90
1225;DHT22;602;48.000;7.840;2023-05-18T09:36:12;25.90;93.20
1225;DHT22;602;48.000;7.840;2023-05-18T09:38:42;25.80;90.00
1225;DHT22;602;48.000;7.840;2023-05-18T09:41:11;25.90;91.50
1225;DHT22;602;48.000;7.840;2023-05-18T09:43:38;26.10;91.20
1225;DHT22;602;48.000;7.840;2023-05-18T09:46:05;26.20;91.60
1225;DHT22;602;48.000;7.840;2023-05-18T09:48:34;26.10;90.00
1225;DHT22;602;48.000;7.840;2023-05-18T09:51:03;25.40;89.40
1225;DHT22;602;48.000;7.840;2023-05-18T09:53:33;25.20;89.20
1225;DHT22;602;48.000;7.840;2023-05-18T09:56:04;25.10;89.90
1225;DHT22;602;48.000;7.840;2023-05-18T09:58:31;24.80;86.10
1225;DHT22;602;48.000;7.840;2023-05-18T10:01:00;25.10;88.50
1225;DHT22;602;48.000;7.840;2023-05-18T10:07:19;24.50;85.80
1225;DHT22;602;48.000;7.840;2023-05-18T10:10:22;25.00;87.10
1225;DHT22;602;48.000;7.840;2023-05-18T10:12:52;25.50;86.00
1225;DHT22;602;48.000;7.840;2023-05-18T10:15:20;25.90;89.30
1225;DHT22;602;48.000;7.840;2023-05-18T10:17:49;26.20;87.50
1225;DHT22;602;48.000;7.840;2023-05-18T10:20:18;26.40;86.10
1225;DHT22;602;48.000;7.840;2023-05-18T10:22:46;25.60;81.80
1225;DHT22;602;48.000;7.840;2023-05-18T10:25:15;26.10;85.50
1225;DHT22;602;48.000;7.840;2023-05-18T10:27:44;26.40;85.00
1225;DHT22;602;48.000;7.840;2023-05-18T10:30:14;26.40;83.50
1225;DHT22;602;48.000;7.840;2023-05-18T10:32:42;26.40;83.20
1225;DHT22;602;48.000;7.840;2023-05-18T10:35:10;26.40;85.50
1225;DHT22;602;48.000;7.840;2023-05-18T10:37:40;26.20;86.30
1225;DHT22;602;48.000;7.840;2023-05-18T10:40:12;26.60;85.70
1225;DHT22;602;48.000;7.840;2023-05-18T10:42:40;27.00;85.00
1225;DHT22;602;48.000;7.840;2023-05-18T10:45:09;27.30;83.10
1225;DHT22;602;48.000;7.840;2023-05-18T10:47:39;27.50;82.40
1225;DHT22;602;48.000;7.840;2023-05-18T10:50:08;27.40;82.70
1225;DHT22;602;48.000;7.840;2023-05-18T10:52:36;27.40;82.50
1225;DHT22;602;48.000;7.840;2023-05-18T10:55:04;27.30;82.40
1225;DHT22;602;48.000;7.840;2023-05-18T10:57:36;27.30;83.10
1225;DHT22;602;48.000;7.840;2023-05-18T11:00:05;27.20;83.30
1225;DHT22;602;48.000;7.840;2023-05-18T11:02:33;27.30;81.40
1225;DHT22;602;48.000;7.840;2023-05-18T11:05:04;27.40;82.20
1225;DHT22;602;48.000;7.840;2023-05-18T11:07:31;27.50;83.60
1225;DHT22;602;48.000;7.840;2023-05-18T11:10:00;26.90;81.10
1225;DHT22;602;48.000;7.840;2023-05-18T11:12:30;26.60;80.10
1225;DHT22;602;48.000;7.840;2023-05-18T11:14:58;26.40;81.30
1225;DHT22;602;48.000;7.840;2023-05-18T11:17:28;26.20;81.90
1225;DHT22;602;48.000;7.840;2023-05-18T11:20:13;26.10;82.50
1225;DHT22;602;48.000;7.840;2023-05-18T11:22:45;25.90;79.60
1225;DHT22;602;48.000;7.840;2023-05-18T11:25:41;25.70;80.20
1225;DHT22;602;48.000;7.840;2023-05-18T11:28:10;25.90;81.70
1225;DHT22;602;48.000;7.840;2023-05-18T11:30:46;26.00;82.40
1225;DHT22;602;48.000;7.840;2023-05-18T11:33:15;26.00;85.30
1225;DHT22;602;48.000;7.840;2023-05-18T11:36:03;25.70;84.00
1225;DHT22;602;48.000;7.840;2023-05-18T11:38:52;25.90;83.40
1225;DHT22;602;48.000;7.840;2023-05-18T11:41:32;25.70;83.50
1225;DHT22;602;48.000;7.840;2023-05-18T11:44:14;25.50;84.10
1225;DHT22;602;48.000;7.840;2023-05-18T11:46:51;25.50;84.50
1225;DHT22;602;48.000;7.840;2023-05-18T11:49:20;25.70;85.50
1225;DHT22;602;48.000;7.840;2023-05-18T11:51:56;25.70;82.50
1225;DHT22;602;48.000;7.840;2023-05-18T11:54:26;25.50;80.90
1225;DHT22;602;48.000;7.840;2023-05-18T11:56:54;25.50;81.70
1225;DHT22;602;48.000;7.840;2023-05-18T11:59:31;25.40;82.80
1225;DHT22;602;48.000;7.840;2023-05-18T12:02:00;25.70;82.80
1225;DHT22;602;48.000;7.840;2023-05-18T12:04:28;25.60;85.00
1225;DHT22;602;48.000;7.840;2023-05-18T12:06:57;25.70;84.30
1225;DHT22;602;48.000;7.840;2023-05-18T12:09:24;25.60;83.40
1225;DHT22;602;48.000;7.840;2023-05-18T12:11:54;25.30;82.60
1225;DHT22;602;48.000;7.840;2023-05-18T12:14:21;25.10;80.60
1225;DHT22;602;48.000;7.840;2023-05-18T12:16:49;24.50;79.10
1225;DHT22;602;48.000;7.840;2023-05-18T12:19:16;24.40;83.10
1225;DHT22;602;48.000;7.840;2023-05-18T12:21:44;24.50;85.80
1225;DHT22;602;48.000;7.840;2023-05-18T12:24:12;24.60;85.70
1225;DHT22;602;48.000;7.840;2023-05-18T12:26:39;24.50;85.90
1225;DHT22;602;48.000;7.840;2023-05-18T12:29:06;24.40;85.20
1225;DHT22;602;48.000;7.840;2023-05-18T12:31:38;24.40;85.30
1225;DHT22;602;48.000;7.840;2023-05-18T12:34:08;24.40;88.00
1225;DHT22;602;48.000;7.840;2023-05-18T12:36:40;24.40;87.40
1225;DHT22;602;48.000;7.840;2023-05-18T12:39:08;24.50;87.00
1225;DHT22;602;48.000;7.840;2023-05-18T12:41:36;24.50;88.80
1225;DHT22;602;48.000;7.840;2023-05-18T12:44:04;24.40;87.50
1225;DHT22;602;48.000;7.840;2023-05-18T12:46:30;24.30;88.20
1225;DHT22;602;48.000;7.840;2023-05-18T12:48:58;23.80;86.70
1225;DHT22;602;48.000;7.840;2023-05-18T12:51:31;23.70;89.10
1225;DHT22;602;48.000;7.840;2023-05-18T12:53:58;23.80;88.40
1225;DHT22;602;48.000;7.840;2023-05-18T12:56:25;23.50;87.40
1225;DHT22;602;48.000;7.840;2023-05-18T12:58:57;23.60;89.30
1225;DHT22;602;48.000;7.840;2023-05-18T13:01:25;23.60;88.70
1225;DHT22;602;48.000;7.840;2023-05-18T13:03:56;23.60;90.20
1225;DHT22;602;48.000;7.840;2023-05-18T13:06:24;23.50;90.00
1225;DHT22;602;48.000;7.840;2023-05-18T13:08:54;23.60;90.50
1225;DHT22;602;48.000;7.840;2023-05-18T13:11:23;23.60;90.40
1225;DHT22;602;48.000;7.840;2023-05-18T13:13:59;23.40;90.10
1225;DHT22;602;48.000;7.840;2023-05-18T13:16:28;23.20;90.10
1225;DHT22;602;48.000;7.840;2023-05-18T13:18:56;23.30;90.50
1225;DHT22;602;48.000;7.840;2023-05-18T13:21:23;23.40;90.30
1225;DHT22;602;48.000;7.840;2023-05-18T13:23:51;23.30;90.40
1225;DHT22;602;48.000;7.840;2023-05-18T13:26:19;23.30;90.60
1225;DHT22;602;48.000;7.840;2023-05-18T13:28:48;23.20;90.30
1225;DHT22;602;48.000;7.840;2023-05-18T13:31:17;23.10;90.80
1225;DHT22;602;48.000;7.840;2023-05-18T13:33:44;22.90;91.40
1225;DHT22;602;48.000;7.840;2023-05-18T13:36:11;22.50;90.60
1225;DHT22;602;48.000;7.840;2023-05-18T13:38:38;22.60;90.50
1225;DHT22;602;48.000;7.840;2023-05-18T13:41:07;22.50;90.90
1225;DHT22;602;48.000;7.840;2023-05-18T13:43:34;22.60;91.50
1225;DHT22;602;48.000;7.840;2023-05-18T13:46:01;22.70;92.40
1225;DHT22;602;48.000;7.840;2023-05-18T13:48:29;22.70;91.30
1225;DHT22;602;48.000;7.840;2023-05-18T13:50:56;22.80;91.40
1225;DHT22;602;48.000;7.840;2023-05-18T13:53:24;22.50;91.00
1225;DHT22;602;48.000;7.840;2023-05-18T13:55:51;22.20;91.00
1225;DHT22;602;48.000;7.840;2023-05-18T13:58:18;22.30;92.50
1225;DHT22;602;48.000;7.840;2023-05-18T14:00:45;22.10;91.10
1225;DHT22;602;48.000;7.840;2023-05-18T14:03:12;22.30;91.80
1225;DHT22;602;48.000;7.840;2023-05-18T14:05:40;22.20;91.50
1225;DHT22;602;48.000;7.840;2023-05-18T14:08:07;22.00;91.10
1225;DHT22;602;48.000;7.840;2023-05-18T14:10:34;22.00;91.30
1225;DHT22;602;48.000;7.840;2023-05-18T14:13:01;21.90;91.50
1225;DHT22;602;48.000;7.840;2023-05-18T14:15:28;21.60;90.70
1225;DHT22;602;48.000;7.840;2023-05-18T14:17:55;21.50;92.20
1225;DHT22;602;48.000;7.840;2023-05-18T14:20:22;21.70;92.40
1225;DHT22;602;48.000;7.840;2023-05-18T14:22:50;21.70;91.90
1225;DHT22;602;48.000;7.840;2023-05-18T14:25:17;21.80;91.70
1225;DHT22;602;48.000;7.840;2023-05-18T14:27:44;21.70;92.60
1225;DHT22;602;48.000;7.840;2023-05-18T14:30:11;21.70;91.20
1225;DHT22;602;48.000;7.840;2023-05-18T14:32:38;21.30;90.60
1225;DHT22;602;48.000;7.840;2023-05-18T14:35:05;21.40;91.70
1225;DHT22;602;48.000;7.840;2023-05-18T14:37:32;21.30;91.30
1225;DHT22;602;48.000;7.840;2023-05-18T14:40:00;21.40;92.20
1225;DHT22;602;48.000;7.840;2023-05-18T14:42:28;21.50;92.40
1225;DHT22;602;48.000;7.840;2023-05-18T14:44:55;21.50;92.20
1225;DHT22;602;48.000;7.840;2023-05-18T14:47:22;21.30;91.90
1225;DHT22;602;48.000;7.840;2023-05-18T14:49:49;21.30;92.70
1225;DHT22;602;48.000;7.840;2023-05-18T14:52:15;21.40;92.70
1225;DHT22;602;48.000;7.840;2023-05-18T14:54:42;21.30;92.50
1225;DHT22;602;48.000;7.840;2023-05-18T14:57:10;21.30;93.00
1225;DHT22;602;48.000;7.840;2023-05-18T14:59:37;21.40;93.30
1225;DHT22;602;48.000;7.840;2023-05-18T15:02:04;21.40;92.90
1225;DHT22;602;48.000;7.840;2023-05-18T15:04:32;21.30;92.80
1225;DHT22;602;48.000;7.840;2023-05-18T15:06:59;21.30;92.60
1225;DHT22;602;48.000;7.840;2023-05-18T15:09:26;21.10;92.40
1225;DHT22;602;48.000;7.840;2023-05-18T15:11:52;21.10;93.10
1225;DHT22;602;48.000;7.840;2023-05-18T15:14:21;20.90;92.00
1225;DHT22;602;48.000;7.840;2023-05-18T15:16:48;20.70;92.70
1225;DHT22;602;48.000;7.840;2023-05-18T15:19:15;20.70;93.20
1225;DHT22;602;48.000;7.840;2023-05-18T15:21:42;20.50;92.30
1225;DHT22;602;48.000;7.840;2023-05-18T15:24:09;20.60;93.20
1225;DHT22;602;48.000;7.840;2023-05-18T15:26:36;20.60;93.20
1225;DHT22;602;48.000;7.840;2023-05-18T15:29:03;20.80;92.60
1225;DHT22;602;48.000;7.840;2023-05-18T15:31:31;20.70;93.20
1225;DHT22;602;48.000;7.840;2023-05-18T15:33:58;20.80;93.30
1225;DHT22;602;48.000;7.840;2023-05-18T15:36:25;20.70;92.90
1225;DHT22;602;48.000;7.840;2023-05-18T15:38:52;20.60;93.00
1225;DHT22;602;48.000;7.840;2023-05-18T15:41:19;20.60;93.60
1225;DHT22;602;48.000;7.840;2023-05-18T15:43:46;20.60;93.20
1225;DHT22;602;48.000;7.840;2023-05-18T15:46:13;20.70;93.70
1225;DHT22;602;48.000;7.840;2023-05-18T15:48:41;20.40;92.50
1225;DHT22;602;48.000;7.840;2023-05-18T15:51:08;20.40;92.60
1225;DHT22;602;48.000;7.840;2023-05-18T15:53:35;20.40;92.50
1225;DHT22;602;48.000;7.840;2023-05-18T15:56:02;20.40;92.70
1225;DHT22;602;48.000;7.840;2023-05-18T15:58:28;20.60;93.60
1225;DHT22;602;48.000;7.840;2023-05-18T16:00:55;20.50;93.30
1225;DHT22;602;48.000;7.840;2023-05-18T16:03:22;20.30;92.40
1225;DHT22;602;48.000;7.840;2023-05-18T16:05:50;20.40;92.80
1225;DHT22;602;48.000;7.840;2023-05-18T16:08:17;20.40;92.90
1225;DHT22;602;48.000;7.840;2023-05-18T16:10:44;20.40;93.00
1225;DHT22;602;48.000;7.840;2023-05-18T16:13:11;20.50;93.60
1225;DHT22;602;48.000;7.840;2023-05-18T16:15:39;20.50;93.40
1225;DHT22;602;48.000;7.840;2023-05-18T16:18:06;20.50;93.70
1225;DHT22;602;48.000;7.840;2023-05-18T16:20:33;20.60;93.90
1225;DHT22;602;48.000;7.840;2023-05-18T16:23:01;20.60;94.00
1225;DHT22;602;48.000;7.840;2023-05-18T16:25:28;20.20;92.60
1225;DHT22;602;48.000;7.840;2023-05-18T16:27:57;20.00;93.20
1225;DHT22;602;48.000;7.840;2023-05-18T16:30:24;19.80;92.80
1225;DHT22;602;48.000;7.840;2023-05-18T16:32:53;19.80;93.30
1225;DHT22;602;48.000;7.840;2023-05-18T16:35:23;19.60;93.20